sensor_id;sensor_type;location;lat;lon;timestamp;P1;durP1;ratioP1;P2;durP2;ratioP2
55915;SDS011;41826;53.246;-6.670;2022-07-10T00:00:09;1.98;;;1.88;;
55915;SDS011;41826;53.246;-6.670;2022-07-10T00:02:37;3.35;;;1.90;;
55915;SDS011;41826;53.246;-6.670;2022-07-10T00:05:03;2.58;;;2.22;;
55915;SDS011;41826;53.246;-6.670;2022-07-10T00:07:30;2.67;;;2.03;;
55915;SDS011;41826;53.246;-6.670;2022-07-10T00:09:55;2.13;;;1.83;;
55915;SDS011;41826;53.246;-6.670;2022-07-10T00:12:21;1.90;;;1.80;;
55915;SDS011;41826;53.246;-6.670;2022-07-10T00:14:46;2.00;;;1.90;;
55915;SDS011;41826;53.246;-6.670;2022-07-10T00:17:12;2.38;;;2.17;;
55915;SDS011;41826;53.246;-6.670;2022-07-10T00:19:37;1.90;;;1.80;;
55915;SDS011;41826;53.246;-6.670;2022-07-10T00:22:03;3.90;;;2.97;;
55915;SDS011;41826;53.246;-6.670;2022-07-10T00:24:28;2.10;;;2.00;;
55915;SDS011;41826;53.246;-6.670;2022-07-10T00:26:54;2.58;;;2.17;;
55915;SDS011;41826;53.246;-6.670;2022-07-10T00:29:19;2.60;;;2.25;;
55915;SDS011;41826;53.246;-6.670;2022-07-10T00:31:44;2.40;;;2.20;;
55915;SDS011;41826;53.246;-6.670;2022-07-10T00:34:10;2.40;;;2.20;;
55915;SDS011;41826;53.246;-6.670;2022-07-10T00:36:36;2.05;;;1.95;;
55915;SDS011;41826;53.246;-6.670;2022-07-10T00:39:02;2.00;;;1.90;;
55915;SDS011;41826;53.246;-6.670;2022-07-10T00:41:27;2.88;;;2.00;;
55915;SDS011;41826;53.246;-6.670;2022-07-10T00:43:57;2.10;;;2.00;;
55915;SDS011;41826;53.246;-6.670;2022-07-10T00:46:23;2.50;;;2.30;;
55915;SDS011;41826;53.246;-6.670;2022-07-10T00:48:50;2.30;;;2.20;;
55915;SDS011;41826;53.246;-6.670;2022-07-10T00:51:17;4.13;;;2.67;;
55915;SDS011;41826;53.246;-6.670;2022-07-10T00:53:44;2.60;;;2.40;;
55915;SDS011;41826;53.246;-6.670;2022-07-10T00:56:11;2.63;;;2.42;;
55915;SDS011;41826;53.246;-6.670;2022-07-10T00:58:38;2.25;;;2.05;;
55915;SDS011;41826;53.246;-6.670;2022-07-10T01:01:05;3.03;;;2.65;;
55915;SDS011;41826;53.246;-6.670;2022-07-10T01:03:31;3.13;;;2.42;;
55915;SDS011;41826;53.246;-6.670;2022-07-10T01:05:57;2.53;;;2.33;;
55915;SDS011;41826;53.246;-6.670;2022-07-10T01:08:23;3.78;;;3.47;;
55915;SDS011;41826;53.246;-6.670;2022-07-10T01:10:49;3.17;;;2.75;;
55915;SDS011;41826;53.246;-6.670;2022-07-10T01:13:14;4.13;;;3.13;;
55915;SDS011;41826;53.246;-6.670;2022-07-10T01:15:40;3.30;;;3.00;;
55915;SDS011;41826;53.246;-6.670;2022-07-10T01:18:06;4.20;;;2.83;;
55915;SDS011;41826;53.246;-6.670;2022-07-10T01:20:32;3.92;;;3.08;;
55915;SDS011;41826;53.246;-6.670;2022-07-10T01:22:58;3.38;;;3.08;;
55915;SDS011;41826;53.246;-6.670;2022-07-10T01:25:24;3.30;;;3.00;;
55915;SDS011;41826;53.246;-6.670;2022-07-10T01:27:50;3.30;;;3.00;;
55915;SDS011;41826;53.246;-6.670;2022-07-10T01:30:16;2.63;;;2.42;;
55915;SDS011;41826;53.246;-6.670;2022-07-10T01:32:44;2.90;;;2.65;;
55915;SDS011;41826;53.246;-6.670;2022-07-10T01:35:10;2.72;;;2.50;;
55915;SDS011;41826;53.246;-6.670;2022-07-10T01:37:36;5.38;;;3.72;;
55915;SDS011;41826;53.246;-6.670;2022-07-10T01:40:02;3.30;;;3.00;;
55915;SDS011;41826;53.246;-6.670;2022-07-10T01:42:28;3.25;;;2.95;;
55915;SDS011;41826;53.246;-6.670;2022-07-10T01:44:54;1.85;;;1.73;;
55915;SDS011;41826;53.246;-6.670;2022-07-10T01:47:19;3.55;;;2.67;;
55915;SDS011;41826;53.246;-6.670;2022-07-10T01:49:49;5.10;;;2.45;;
55915;SDS011;41826;53.246;-6.670;2022-07-10T01:52:15;2.53;;;2.33;;
55915;SDS011;41826;53.246;-6.670;2022-07-10T01:54:40;2.78;;;2.10;;
55915;SDS011;41826;53.246;-6.670;2022-07-10T01:57:06;2.20;;;1.80;;
55915;SDS011;41826;53.246;-6.670;2022-07-10T01:59:31;0.98;;;0.98;;
55915;SDS011;41826;53.246;-6.670;2022-07-10T02:01:56;0.82;;;0.82;;
55915;SDS011;41826;53.246;-6.670;2022-07-10T02:04:22;0.77;;;0.77;;
55915;SDS011;41826;53.246;-6.670;2022-07-10T02:07:05;0.90;;;0.85;;
55915;SDS011;41826;53.246;-6.670;2022-07-10T02:09:34;3.20;;;1.40;;
55915;SDS011;41826;53.246;-6.670;2022-07-10T02:12:00;1.38;;;1.27;;
55915;SDS011;41826;53.246;-6.670;2022-07-10T02:14:25;4.93;;;1.40;;
55915;SDS011;41826;53.246;-6.670;2022-07-10T02:16:51;2.10;;;1.95;;
55915;SDS011;41826;53.246;-6.670;2022-07-10T02:19:16;2.03;;;1.88;;
55915;SDS011;41826;53.246;-6.670;2022-07-10T02:21:42;2.08;;;1.88;;
55915;SDS011;41826;53.246;-6.670;2022-07-10T02:24:07;2.70;;;2.50;;
55915;SDS011;41826;53.246;-6.670;2022-07-10T02:26:32;2.55;;;2.35;;
55915;SDS011;41826;53.246;-6.670;2022-07-10T02:28:58;2.13;;;2.03;;
55915;SDS011;41826;53.246;-6.670;2022-07-10T02:31:23;2.85;;;1.85;;
55915;SDS011;41826;53.246;-6.670;2022-07-10T02:33:49;2.63;;;2.08;;
55915;SDS011;41826;53.246;-6.670;2022-07-10T02:36:14;3.00;;;1.90;;
55915;SDS011;41826;53.246;-6.670;2022-07-10T02:38:39;2.50;;;1.90;;
55915;SDS011;41826;53.246;-6.670;2022-07-10T02:41:05;1.95;;;1.83;;
55915;SDS011;41826;53.246;-6.670;2022-07-10T02:43:30;3.05;;;1.90;;
55915;SDS011;41826;53.246;-6.670;2022-07-10T02:45:56;2.75;;;1.63;;
55915;SDS011;41826;53.246;-6.670;2022-07-10T02:48:21;3.63;;;1.67;;
55915;SDS011;41826;53.246;-6.670;2022-07-10T02:50:46;3.65;;;1.70;;
55915;SDS011;41826;53.246;-6.670;2022-07-10T02:53:12;1.33;;;1.23;;
55915;SDS011;41826;53.246;-6.670;2022-07-10T02:55:37;1.80;;;1.70;;
55915;SDS011;41826;53.246;-6.670;2022-07-10T02:58:03;2.10;;;2.00;;
55915;SDS011;41826;53.246;-6.670;2022-07-10T03:00:28;0.70;;;0.70;;
55915;SDS011;41826;53.246;-6.670;2022-07-10T03:02:54;0.82;;;0.82;;
55915;SDS011;41826;53.246;-6.670;2022-07-10T03:05:22;1.15;;;0.95;;
55915;SDS011;41826;53.246;-6.670;2022-07-10T03:07:47;1.70;;;1.60;;
55915;SDS011;41826;53.246;-6.670;2022-07-10T03:10:13;1.30;;;1.23;;
55915;SDS011;41826;53.246;-6.670;2022-07-10T03:12:38;2.25;;;2.10;;
55915;SDS011;41826;53.246;-6.670;2022-07-10T03:15:04;2.28;;;1.50;;
55915;SDS011;41826;53.246;-6.670;2022-07-10T03:17:30;2.20;;;2.05;;
55915;SDS011;41826;53.246;-6.670;2022-07-10T03:19:56;2.35;;;2.15;;
55915;SDS011;41826;53.246;-6.670;2022-07-10T03:22:21;2.55;;;2.33;;
55915;SDS011;41826;53.246;-6.670;2022-07-10T03:24:47;2.53;;;2.33;;
55915;SDS011;41826;53.246;-6.670;2022-07-10T03:27:13;4.05;;;2.45;;
55915;SDS011;41826;53.246;-6.670;2022-07-10T03:29:39;3.00;;;2.70;;
55915;SDS011;41826;53.246;-6.670;2022-07-10T03:32:05;6.00;;;2.42;;
55915;SDS011;41826;53.246;-6.670;2022-07-10T03:34:31;2.08;;;1.98;;
55915;SDS011;41826;53.246;-6.670;2022-07-10T03:36:58;2.47;;;1.58;;
55915;SDS011;41826;53.246;-6.670;2022-07-10T03:39:28;1.65;;;1.55;;
55915;SDS011;41826;53.246;-6.670;2022-07-10T03:41:53;2.00;;;1.90;;
55915;SDS011;41826;53.246;-6.670;2022-07-10T03:44:19;2.17;;;1.95;;
55915;SDS011;41826;53.246;-6.670;2022-07-10T03:46:44;2.30;;;2.10;;
55915;SDS011;41826;53.246;-6.670;2022-07-10T03:49:10;4.20;;;2.08;;
55915;SDS011;41826;53.246;-6.670;2022-07-10T03:51:35;2.83;;;2.63;;
55915;SDS011;41826;53.246;-6.670;2022-07-10T03:54:01;2.00;;;1.90;;
55915;SDS011;41826;53.246;-6.670;2022-07-10T03:56:26;2.50;;;2.30;;
55915;SDS011;41826;53.246;-6.670;2022-07-10T03:59:10;2.42;;;2.22;;
55915;SDS011;41826;53.246;-6.670;2022-07-10T04:01:35;2.40;;;2.20;;
55915;SDS011;41826;53.246;-6.670;2022-07-10T04:04:01;2.78;;;2.38;;
55915;SDS011;41826;53.246;-6.670;2022-07-10T04:06:27;3.13;;;2.30;;
55915;SDS011;41826;53.246;-6.670;2022-07-10T04:08:53;2.58;;;2.30;;
55915;SDS011;41826;53.246;-6.670;2022-07-10T04:11:18;6.15;;;2.40;;
55915;SDS011;41826;53.246;-6.670;2022-07-10T04:13:44;1.38;;;1.27;;
55915;SDS011;41826;53.246;-6.670;2022-07-10T04:16:09;3.28;;;2.95;;
55915;SDS011;41826;53.246;-6.670;2022-07-10T04:18:41;2.88;;;2.60;;
55915;SDS011;41826;53.246;-6.670;2022-07-10T04:21:07;2.15;;;2.05;;
55915;SDS011;41826;53.246;-6.670;2022-07-10T04:23:33;1.55;;;1.40;;
55915;SDS011;41826;53.246;-6.670;2022-07-10T04:25:59;2.40;;;2.20;;
55915;SDS011;41826;53.246;-6.670;2022-07-10T04:28:25;3.10;;;2.33;;
55915;SDS011;41826;53.246;-6.670;2022-07-10T04:30:50;2.30;;;2.20;;
55915;SDS011;41826;53.246;-6.670;2022-07-10T04:33:16;2.65;;;2.10;;
55915;SDS011;41826;53.246;-6.670;2022-07-10T04:35:42;1.23;;;1.13;;
55915;SDS011;41826;53.246;-6.670;2022-07-10T04:38:07;3.88;;;2.17;;
55915;SDS011;41826;53.246;-6.670;2022-07-10T04:40:32;4.95;;;3.05;;
55915;SDS011;41826;53.246;-6.670;2022-07-10T04:42:58;1.05;;;0.95;;
55915;SDS011;41826;53.246;-6.670;2022-07-10T04:45:23;3.85;;;2.05;;
55915;SDS011;41826;53.246;-6.670;2022-07-10T04:47:49;3.85;;;2.38;;
55915;SDS011;41826;53.246;-6.670;2022-07-10T04:50:14;7.10;;;2.80;;
55915;SDS011;41826;53.246;-6.670;2022-07-10T04:52:39;1.80;;;1.70;;
55915;SDS011;41826;53.246;-6.670;2022-07-10T04:55:05;3.20;;;2.90;;
55915;SDS011;41826;53.246;-6.670;2022-07-10T04:57:31;4.40;;;2.90;;
55915;SDS011;41826;53.246;-6.670;2022-07-10T04:59:56;2.47;;;2.28;;
55915;SDS011;41826;53.246;-6.670;2022-07-10T05:02:22;2.92;;;2.30;;
55915;SDS011;41826;53.246;-6.670;2022-07-10T05:04:47;1.25;;;1.00;;
55915;SDS011;41826;53.246;-6.670;2022-07-10T05:07:13;3.17;;;2.88;;
55915;SDS011;41826;53.246;-6.670;2022-07-10T05:09:39;3.38;;;3.08;;
55915;SDS011;41826;53.246;-6.670;2022-07-10T05:12:05;2.95;;;2.75;;
55915;SDS011;41826;53.246;-6.670;2022-07-10T05:14:31;6.55;;;2.63;;
55915;SDS011;41826;53.246;-6.670;2022-07-10T05:16:56;3.33;;;2.70;;
55915;SDS011;41826;53.246;-6.670;2022-07-10T05:19:22;3.95;;;2.90;;
55915;SDS011;41826;53.246;-6.670;2022-07-10T05:21:48;5.68;;;2.70;;
55915;SDS011;41826;53.246;-6.670;2022-07-10T05:24:13;3.58;;;2.65;;
55915;SDS011;41826;53.246;-6.670;2022-07-10T05:26:39;3.58;;;2.35;;
55915;SDS011;41826;53.246;-6.670;2022-07-10T05:29:04;3.47;;;2.33;;
55915;SDS011;41826;53.246;-6.670;2022-07-10T05:31:29;6.10;;;1.63;;
55915;SDS011;41826;53.246;-6.670;2022-07-10T05:33:55;2.40;;;1.92;;
55915;SDS011;41826;53.246;-6.670;2022-07-10T05:36:20;1.48;;;1.33;;
55915;SDS011;41826;53.246;-6.670;2022-07-10T05:38:45;1.65;;;1.55;;
55915;SDS011;41826;53.246;-6.670;2022-07-10T05:41:11;2.50;;;2.30;;
55915;SDS011;41826;53.246;-6.670;2022-07-10T05:43:36;2.40;;;2.20;;
55915;SDS011;41826;53.246;-6.670;2022-07-10T05:46:02;2.55;;;2.15;;
55915;SDS011;41826;53.246;-6.670;2022-07-10T05:48:27;2.30;;;2.08;;
55915;SDS011;41826;53.246;-6.670;2022-07-10T05:50:53;2.15;;;2.05;;
55915;SDS011;41826;53.246;-6.670;2022-07-10T05:53:18;3.03;;;2.38;;
55915;SDS011;41826;53.246;-6.670;2022-07-10T05:55:45;3.78;;;2.40;;
55915;SDS011;41826;53.246;-6.670;2022-07-10T05:58:12;7.55;;;2.75;;
55915;SDS011;41826;53.246;-6.670;2022-07-10T06:00:37;3.15;;;2.45;;
55915;SDS011;41826;53.246;-6.670;2022-07-10T06:03:03;4.30;;;2.53;;
55915;SDS011;41826;53.246;-6.670;2022-07-10T06:05:28;8.82;;;2.70;;
55915;SDS011;41826;53.246;-6.670;2022-07-10T06:07:54;6.63;;;3.10;;
55915;SDS011;41826;53.246;-6.670;2022-07-10T06:10:19;9.45;;;2.90;;
55915;SDS011;41826;53.246;-6.670;2022-07-10T06:12:44;3.55;;;2.85;;
55915;SDS011;41826;53.246;-6.670;2022-07-10T06:15:10;4.53;;;3.20;;
55915;SDS011;41826;53.246;-6.670;2022-07-10T06:17:36;5.30;;;3.00;;
55915;SDS011;41826;53.246;-6.670;2022-07-10T06:20:01;4.22;;;3.22;;
55915;SDS011;41826;53.246;-6.670;2022-07-10T06:22:27;5.28;;;3.40;;
55915;SDS011;41826;53.246;-6.670;2022-07-10T06:24:55;4.75;;;3.47;;
55915;SDS011;41826;53.246;-6.670;2022-07-10T06:27:25;3.65;;;3.22;;
55915;SDS011;41826;53.246;-6.670;2022-07-10T06:29:50;4.93;;;3.13;;
55915;SDS011;41826;53.246;-6.670;2022-07-10T06:32:16;3.55;;;3.10;;
55915;SDS011;41826;53.246;-6.670;2022-07-10T06:34:41;7.13;;;3.75;;
55915;SDS011;41826;53.246;-6.670;2022-07-10T06:37:07;6.53;;;3.50;;
55915;SDS011;41826;53.246;-6.670;2022-07-10T06:39:32;4.25;;;3.38;;
55915;SDS011;41826;53.246;-6.670;2022-07-10T06:42:00;5.45;;;3.63;;
55915;SDS011;41826;53.246;-6.670;2022-07-10T06:44:27;4.25;;;3.85;;
55915;SDS011;41826;53.246;-6.670;2022-07-10T06:46:52;7.47;;;4.03;;
55915;SDS011;41826;53.246;-6.670;2022-07-10T06:49:36;3.65;;;3.38;;
55915;SDS011;41826;53.246;-6.670;2022-07-10T06:52:02;4.38;;;3.65;;
55915;SDS011;41826;53.246;-6.670;2022-07-10T06:54:27;9.20;;;3.13;;
55915;SDS011;41826;53.246;-6.670;2022-07-10T06:56:53;4.05;;;3.65;;
55915;SDS011;41826;53.246;-6.670;2022-07-10T06:59:18;3.63;;;3.33;;
55915;SDS011;41826;53.246;-6.670;2022-07-10T07:01:44;3.85;;;2.97;;
55915;SDS011;41826;53.246;-6.670;2022-07-10T07:04:10;3.75;;;3.15;;
55915;SDS011;41826;53.246;-6.670;2022-07-10T07:06:36;5.13;;;3.15;;
55915;SDS011;41826;53.246;-6.670;2022-07-10T07:09:01;3.00;;;2.80;;
55915;SDS011;41826;53.246;-6.670;2022-07-10T07:11:27;6.82;;;2.97;;
55915;SDS011;41826;53.246;-6.670;2022-07-10T07:13:53;4.75;;;2.55;;
55915;SDS011;41826;53.246;-6.670;2022-07-10T07:16:18;2.22;;;2.13;;
55915;SDS011;41826;53.246;-6.670;2022-07-10T07:18:45;3.75;;;2.97;;
55915;SDS011;41826;53.246;-6.670;2022-07-10T07:21:17;3.05;;;2.75;;
55915;SDS011;41826;53.246;-6.670;2022-07-10T07:24:01;2.90;;;2.60;;
55915;SDS011;41826;53.246;-6.670;2022-07-10T07:26:26;4.00;;;2.38;;
55915;SDS011;41826;53.246;-6.670;2022-07-10T07:28:52;3.90;;;2.40;;
55915;SDS011;41826;53.246;-6.670;2022-07-10T07:31:17;3.35;;;2.65;;
55915;SDS011;41826;53.246;-6.670;2022-07-10T07:33:43;4.88;;;2.58;;
55915;SDS011;41826;53.246;-6.670;2022-07-10T07:36:08;3.45;;;2.45;;
55915;SDS011;41826;53.246;-6.670;2022-07-10T07:38:34;2.30;;;2.10;;
55915;SDS011;41826;53.246;-6.670;2022-07-10T07:40:59;3.17;;;2.20;;
55915;SDS011;41826;53.246;-6.670;2022-07-10T07:43:25;2.05;;;1.85;;
55915;SDS011;41826;53.246;-6.670;2022-07-10T07:45:51;2.10;;;1.90;;
55915;SDS011;41826;53.246;-6.670;2022-07-10T07:48:16;4.82;;;2.10;;
55915;SDS011;41826;53.246;-6.670;2022-07-10T07:50:42;2.75;;;1.90;;
55915;SDS011;41826;53.246;-6.670;2022-07-10T07:53:07;1.80;;;1.70;;
55915;SDS011;41826;53.246;-6.670;2022-07-10T07:55:33;1.70;;;1.60;;
55915;SDS011;41826;53.246;-6.670;2022-07-10T07:57:59;3.28;;;1.85;;
55915;SDS011;41826;53.246;-6.670;2022-07-10T08:00:28;1.60;;;1.50;;
55915;SDS011;41826;53.246;-6.670;2022-07-10T08:02:55;1.60;;;1.50;;
55915;SDS011;41826;53.246;-6.670;2022-07-10T08:05:21;1.52;;;1.25;;
55915;SDS011;41826;53.246;-6.670;2022-07-10T08:07:51;1.80;;;1.50;;
55915;SDS011;41826;53.246;-6.670;2022-07-10T08:10:31;1.35;;;1.25;;
55915;SDS011;41826;53.246;-6.670;2022-07-10T08:12:57;1.20;;;1.20;;
55915;SDS011;41826;53.246;-6.670;2022-07-10T08:15:22;1.10;;;1.10;;
55915;SDS011;41826;53.246;-6.670;2022-07-10T08:17:49;2.50;;;1.58;;
55915;SDS011;41826;53.246;-6.670;2022-07-10T08:20:16;1.38;;;1.27;;
55915;SDS011;41826;53.246;-6.670;2022-07-10T08:22:42;1.30;;;1.20;;
55915;SDS011;41826;53.246;-6.670;2022-07-10T08:25:08;1.40;;;1.30;;
55915;SDS011;41826;53.246;-6.670;2022-07-10T08:27:34;1.30;;;1.20;;
55915;SDS011;41826;53.246;-6.670;2022-07-10T08:30:00;1.42;;;0.90;;
55915;SDS011;41826;53.246;-6.670;2022-07-10T08:32:26;1.27;;;1.17;;
55915;SDS011;41826;53.246;-6.670;2022-07-10T08:34:52;1.35;;;1.00;;
55915;SDS011;41826;53.246;-6.670;2022-07-10T08:37:18;1.40;;;1.30;;
55915;SDS011;41826;53.246;-6.670;2022-07-10T08:39:44;1.27;;;1.17;;
55915;SDS011;41826;53.246;-6.670;2022-07-10T08:42:10;0.68;;;0.60;;
55915;SDS011;41826;53.246;-6.670;2022-07-10T08:44:36;0.68;;;0.68;;
55915;SDS011;41826;53.246;-6.670;2022-07-10T08:47:02;0.60;;;0.60;;
55915;SDS011;41826;53.246;-6.670;2022-07-10T08:49:29;5.70;;;2.92;;
55915;SDS011;41826;53.246;-6.670;2022-07-10T08:52:02;1.10;;;1.10;;
55915;SDS011;41826;53.246;-6.670;2022-07-10T08:54:33;0.60;;;0.60;;
55915;SDS011;41826;53.246;-6.670;2022-07-10T08:57:00;1.15;;;1.15;;
55915;SDS011;41826;53.246;-6.670;2022-07-10T08:59:27;1.45;;;1.20;;
55915;SDS011;41826;53.246;-6.670;2022-07-10T09:01:54;0.98;;;0.98;;
55915;SDS011;41826;53.246;-6.670;2022-07-10T09:04:20;1.27;;;1.27;;
55915;SDS011;41826;53.246;-6.670;2022-07-10T09:06:47;1.15;;;1.15;;
55915;SDS011;41826;53.246;-6.670;2022-07-10T09:09:13;2.25;;;1.20;;
55915;SDS011;41826;53.246;-6.670;2022-07-10T09:11:39;1.40;;;1.20;;
55915;SDS011;41826;53.246;-6.670;2022-07-10T09:14:07;4.95;;;1.55;;
55915;SDS011;41826;53.246;-6.670;2022-07-10T09:16:36;1.90;;;1.30;;
55915;SDS011;41826;53.246;-6.670;2022-07-10T09:19:18;1.10;;;1.10;;
55915;SDS011;41826;53.246;-6.670;2022-07-10T09:21:46;5.60;;;2.10;;
55915;SDS011;41826;53.246;-6.670;2022-07-10T09:24:13;1.10;;;1.00;;
55915;SDS011;41826;53.246;-6.670;2022-07-10T09:26:40;1.50;;;1.40;;
55915;SDS011;41826;53.246;-6.670;2022-07-10T09:31:54;1.20;;;1.10;;
55915;SDS011;41826;53.246;-6.670;2022-07-10T09:39:52;1.10;;;1.10;;
55915;SDS011;41826;53.246;-6.670;2022-07-10T09:42:32;1.73;;;1.00;;
55915;SDS011;41826;53.246;-6.670;2022-07-10T09:47:46;1.48;;;1.08;;
55915;SDS011;41826;53.246;-6.670;2022-07-10T09:50:30;5.25;;;0.77;;
55915;SDS011;41826;53.246;-6.670;2022-07-10T09:53:00;1.00;;;1.00;;
55915;SDS011;41826;53.246;-6.670;2022-07-10T09:55:27;1.20;;;1.10;;
55915;SDS011;41826;53.246;-6.670;2022-07-10T09:57:57;1.88;;;1.35;;
55915;SDS011;41826;53.246;-6.670;2022-07-10T10:00:24;1.00;;;1.00;;
55915;SDS011;41826;53.246;-6.670;2022-07-10T10:02:53;1.77;;;1.15;;
55915;SDS011;41826;53.246;-6.670;2022-07-10T10:05:21;1.20;;;1.10;;
55915;SDS011;41826;53.246;-6.670;2022-07-10T10:07:52;7.60;;;1.17;;
55915;SDS011;41826;53.246;-6.670;2022-07-10T10:10:18;2.08;;;1.27;;
55915;SDS011;41826;53.246;-6.670;2022-07-10T10:12:48;0.82;;;0.82;;
55915;SDS011;41826;53.246;-6.670;2022-07-10T10:15:21;1.67;;;1.40;;
55915;SDS011;41826;53.246;-6.670;2022-07-10T10:17:48;1.15;;;1.00;;
55915;SDS011;41826;53.246;-6.670;2022-07-10T10:20:15;1.35;;;1.25;;
55915;SDS011;41826;53.246;-6.670;2022-07-10T10:23:00;1.05;;;1.05;;
55915;SDS011;41826;53.246;-6.670;2022-07-10T10:25:27;1.25;;;1.10;;
55915;SDS011;41826;53.246;-6.670;2022-07-10T10:27:56;1.58;;;1.38;;
55915;SDS011;41826;53.246;-6.670;2022-07-10T10:30:24;1.45;;;1.35;;
55915;SDS011;41826;53.246;-6.670;2022-07-10T10:32:50;3.20;;;1.33;;
55915;SDS011;41826;53.246;-6.670;2022-07-10T10:38:13;1.42;;;1.17;;
55915;SDS011;41826;53.246;-6.670;2022-07-10T10:40:39;1.63;;;1.27;;
55915;SDS011;41826;53.246;-6.670;2022-07-10T10:43:17;2.78;;;1.50;;
55915;SDS011;41826;53.246;-6.670;2022-07-10T10:45:48;4.57;;;1.20;;
55915;SDS011;41826;53.246;-6.670;2022-07-10T10:48:14;1.90;;;1.50;;
55915;SDS011;41826;53.246;-6.670;2022-07-10T10:53:14;2.47;;;1.55;;
55915;SDS011;41826;53.246;-6.670;2022-07-10T10:55:40;1.27;;;1.20;;
55915;SDS011;41826;53.246;-6.670;2022-07-10T10:58:17;1.80;;;1.05;;
55915;SDS011;41826;53.246;-6.670;2022-07-10T11:00:43;2.38;;;1.25;;
55915;SDS011;41826;53.246;-6.670;2022-07-10T11:03:16;1.30;;;1.20;;
55915;SDS011;41826;53.246;-6.670;2022-07-10T11:05:47;1.83;;;1.17;;
55915;SDS011;41826;53.246;-6.670;2022-07-10T11:08:13;1.33;;;1.23;;
55915;SDS011;41826;53.246;-6.670;2022-07-10T11:10:42;1.80;;;1.10;;
55915;SDS011;41826;53.246;-6.670;2022-07-10T11:13:12;1.17;;;1.02;;
55915;SDS011;41826;53.246;-6.670;2022-07-10T11:15:47;1.45;;;0.98;;
55915;SDS011;41826;53.246;-6.670;2022-07-10T11:20:45;1.27;;;1.17;;
55915;SDS011;41826;53.246;-6.670;2022-07-10T11:26:11;1.17;;;1.17;;
55915;SDS011;41826;53.246;-6.670;2022-07-10T11:28:50;1.20;;;1.10;;
55915;SDS011;41826;53.246;-6.670;2022-07-10T11:31:20;1.27;;;1.27;;
55915;SDS011;41826;53.246;-6.670;2022-07-10T11:33:47;3.88;;;1.05;;
55915;SDS011;41826;53.246;-6.670;2022-07-10T11:36:25;1.23;;;1.20;;
55915;SDS011;41826;53.246;-6.670;2022-07-10T11:41:27;0.90;;;0.85;;
55915;SDS011;41826;53.246;-6.670;2022-07-10T11:43:59;6.80;;;3.15;;
55915;SDS011;41826;53.246;-6.670;2022-07-10T11:46:27;1.38;;;1.10;;
55915;SDS011;41826;53.246;-6.670;2022-07-10T11:48:54;3.03;;;1.10;;
55915;SDS011;41826;53.246;-6.670;2022-07-10T11:51:25;1.40;;;1.10;;
55915;SDS011;41826;53.246;-6.670;2022-07-10T11:53:56;3.15;;;1.08;;
55915;SDS011;41826;53.246;-6.670;2022-07-10T11:56:30;1.00;;;1.00;;
55915;SDS011;41826;53.246;-6.670;2022-07-10T11:59:02;1.38;;;0.85;;
55915;SDS011;41826;53.246;-6.670;2022-07-10T12:01:33;0.63;;;0.63;;
55915;SDS011;41826;53.246;-6.670;2022-07-10T12:04:01;1.00;;;1.00;;
55915;SDS011;41826;53.246;-6.670;2022-07-10T12:06:28;1.15;;;1.05;;
55915;SDS011;41826;53.246;-6.670;2022-07-10T12:08:55;2.45;;;0.90;;
55915;SDS011;41826;53.246;-6.670;2022-07-10T12:11:21;1.75;;;0.98;;
55915;SDS011;41826;53.246;-6.670;2022-07-10T12:13:49;1.10;;;1.00;;
55915;SDS011;41826;53.246;-6.670;2022-07-10T12:16:16;0.85;;;0.85;;
55915;SDS011;41826;53.246;-6.670;2022-07-10T12:18:42;1.83;;;1.00;;
55915;SDS011;41826;53.246;-6.670;2022-07-10T12:21:09;1.95;;;1.00;;
55915;SDS011;41826;53.246;-6.670;2022-07-10T12:23:35;1.20;;;1.10;;
55915;SDS011;41826;53.246;-6.670;2022-07-10T12:26:04;1.77;;;1.08;;
55915;SDS011;41826;53.246;-6.670;2022-07-10T12:28:29;1.90;;;1.00;;
55915;SDS011;41826;53.246;-6.670;2022-07-10T12:30:55;1.13;;;1.13;;
55915;SDS011;41826;53.246;-6.670;2022-07-10T12:33:22;2.10;;;1.30;;
55915;SDS011;41826;53.246;-6.670;2022-07-10T12:38:25;0.98;;;0.98;;
55915;SDS011;41826;53.246;-6.670;2022-07-10T12:41:06;2.92;;;1.30;;
55915;SDS011;41826;53.246;-6.670;2022-07-10T12:43:35;1.38;;;1.00;;
55915;SDS011;41826;53.246;-6.670;2022-07-10T12:46:34;2.75;;;1.30;;
55915;SDS011;41826;53.246;-6.670;2022-07-10T12:51:50;1.77;;;0.80;;
55915;SDS011;41826;53.246;-6.670;2022-07-10T12:54:35;0.85;;;0.85;;
55915;SDS011;41826;53.246;-6.670;2022-07-10T12:57:02;0.82;;;0.82;;
55915;SDS011;41826;53.246;-6.670;2022-07-10T12:59:31;1.98;;;1.15;;
55915;SDS011;41826;53.246;-6.670;2022-07-10T13:02:14;0.90;;;0.90;;
55915;SDS011;41826;53.246;-6.670;2022-07-10T13:04:51;1.08;;;1.08;;
55915;SDS011;41826;53.246;-6.670;2022-07-10T13:07:28;1.20;;;1.20;;
55915;SDS011;41826;53.246;-6.670;2022-07-10T13:10:03;0.93;;;0.93;;
55915;SDS011;41826;53.246;-6.670;2022-07-10T13:12:31;12.73;;;5.47;;
55915;SDS011;41826;53.246;-6.670;2022-07-10T13:15:00;3.17;;;0.75;;
55915;SDS011;41826;53.246;-6.670;2022-07-10T13:17:26;2.05;;;0.80;;
55915;SDS011;41826;53.246;-6.670;2022-07-10T13:19:52;2.17;;;1.02;;
55915;SDS011;41826;53.246;-6.670;2022-07-10T13:22:17;0.93;;;0.93;;
55915;SDS011;41826;53.246;-6.670;2022-07-10T13:24:43;0.82;;;0.52;;
55915;SDS011;41826;53.246;-6.670;2022-07-10T13:27:08;1.00;;;1.00;;
55915;SDS011;41826;53.246;-6.670;2022-07-10T13:29:34;2.45;;;0.88;;
55915;SDS011;41826;53.246;-6.670;2022-07-10T13:31:59;3.53;;;0.88;;
55915;SDS011;41826;53.246;-6.670;2022-07-10T13:34:25;0.85;;;0.70;;
55915;SDS011;41826;53.246;-6.670;2022-07-10T13:36:50;1.88;;;0.90;;
55915;SDS011;41826;53.246;-6.670;2022-07-10T13:39:16;0.75;;;0.75;;
55915;SDS011;41826;53.246;-6.670;2022-07-10T13:41:42;0.85;;;0.80;;
55915;SDS011;41826;53.246;-6.670;2022-07-10T13:44:07;1.23;;;0.90;;
55915;SDS011;41826;53.246;-6.670;2022-07-10T13:46:33;1.85;;;1.00;;
55915;SDS011;41826;53.246;-6.670;2022-07-10T13:48:58;2.33;;;1.10;;
55915;SDS011;41826;53.246;-6.670;2022-07-10T13:51:24;1.48;;;0.80;;
55915;SDS011;41826;53.246;-6.670;2022-07-10T13:53:50;1.15;;;0.90;;
55915;SDS011;41826;53.246;-6.670;2022-07-10T13:56:15;0.90;;;0.90;;
55915;SDS011;41826;53.246;-6.670;2022-07-10T13:58:41;3.70;;;0.70;;
55915;SDS011;41826;53.246;-6.670;2022-07-10T14:01:07;0.70;;;0.70;;
55915;SDS011;41826;53.246;-6.670;2022-07-10T14:03:33;2.15;;;1.02;;
55915;SDS011;41826;53.246;-6.670;2022-07-10T14:05:58;0.88;;;0.88;;
55915;SDS011;41826;53.246;-6.670;2022-07-10T14:08:24;1.05;;;0.95;;
55915;SDS011;41826;53.246;-6.670;2022-07-10T14:10:50;4.07;;;0.90;;
55915;SDS011;41826;53.246;-6.670;2022-07-10T14:13:16;1.15;;;0.90;;
55915;SDS011;41826;53.246;-6.670;2022-07-10T14:15:42;0.80;;;0.80;;
55915;SDS011;41826;53.246;-6.670;2022-07-10T14:18:10;0.90;;;0.80;;
55915;SDS011;41826;53.246;-6.670;2022-07-10T14:20:36;2.05;;;0.90;;
55915;SDS011;41826;53.246;-6.670;2022-07-10T14:23:20;0.80;;;0.80;;
55915;SDS011;41826;53.246;-6.670;2022-07-10T14:25:46;0.90;;;0.90;;
55915;SDS011;41826;53.246;-6.670;2022-07-10T14:28:11;5.55;;;0.88;;
55915;SDS011;41826;53.246;-6.670;2022-07-10T14:30:38;0.82;;;0.82;;
55915;SDS011;41826;53.246;-6.670;2022-07-10T14:33:05;0.60;;;0.60;;
55915;SDS011;41826;53.246;-6.670;2022-07-10T14:35:31;0.75;;;0.75;;
55915;SDS011;41826;53.246;-6.670;2022-07-10T14:37:57;1.15;;;1.00;;
55915;SDS011;41826;53.246;-6.670;2022-07-10T14:40:22;0.52;;;0.52;;
55915;SDS011;41826;53.246;-6.670;2022-07-10T14:42:47;2.20;;;0.75;;
55915;SDS011;41826;53.246;-6.670;2022-07-10T14:45:13;0.77;;;0.77;;
55915;SDS011;41826;53.246;-6.670;2022-07-10T14:47:38;0.82;;;0.70;;
55915;SDS011;41826;53.246;-6.670;2022-07-10T14:50:04;1.38;;;0.80;;
55915;SDS011;41826;53.246;-6.670;2022-07-10T14:52:30;0.90;;;0.90;;
55915;SDS011;41826;53.246;-6.670;2022-07-10T14:54:58;1.00;;;0.88;;
55915;SDS011;41826;53.246;-6.670;2022-07-10T14:57:23;1.08;;;0.80;;
55915;SDS011;41826;53.246;-6.670;2022-07-10T14:59:49;1.90;;;1.02;;
55915;SDS011;41826;53.246;-6.670;2022-07-10T15:02:14;2.55;;;0.85;;